Kaiser — NHJK — position and weather

sailwx.info

Track history (hours):
 
Tides and Currents Weather Stations Pressure Air Temp Water Temp Dewpoint Dewpoint Depression Visibility Wind Speed Wind Dir Waves Ship Positions

Kaiser

Last reported at 2017-Mar-22 21:33 UTC. Time now 2017-Mar-28 02:19 UTC.
Position N 32°43' W 117°11'.

; draft 8.5 m.

Type: Military. MMSI: 303849000.

Date/timePositionNaut miles runAvg speedWind from/ knotsBaromVisibWave heightAir tempDewpointWater temp
2017-Mar-22 21:33N 32°43' W 117°11'7 7.0
2017-Mar-22 20:34N 32°36' W 117°14'1615.9
2017-Mar-22 19:33N 32°30' W 117°31'17 0.3
2017-Mar-20 16:12N 32°38' W 117°14'6 8.7
2017-Mar-20 15:33N 32°43' W 117°12'  
2017-Mar-17 21:19N 32°42' W 117°11'3 3.6
2017-Mar-17 20:33N 32°41' W 117°14'8 7.7
2017-Mar-17 19:33N 32°34' W 117°18'7 6.9
2017-Mar-17 18:34N 32°35' W 117°26'5 4.9
2017-Mar-17 17:34N 32°35' W 117°20'1 0.6
2017-Mar-17 16:33N 32°35' W 117°21'7 6.7
2017-Mar-17 15:34N 32°36' W 117°29'9 8.9
2017-Mar-17 14:33N 32°35' W 117°18'1 0.7
2017-Mar-17 13:33N 32°34' W 117°18'  
2017-Mar-14 22:16N 32°36' W 118°48'912.4
2017-Mar-14 21:33N 32°36' W 118°38'1212.3
2017-Mar-14 20:33N 32°36' W 118°23'1312.7
2017-Mar-14 19:33N 32°36' W 118°08'1110.5
2017-Mar-14 18:33N 32°36' W 117°55'2 1.7
2017-Mar-14 17:33N 32°36' W 117°57'7 7.1
2017-Mar-14 16:33N 32°36' W 118°06'7 6.7
2017-Mar-14 15:33N 32°36' W 118°14'7 6.7
2017-Mar-14 14:33N 32°36' W 118°06'7 7.1
2017-Mar-14 13:33N 32°36' W 117°57'7 7.3
2017-Mar-14 12:33N 32°36' W 117°49'2 2.1
2017-Mar-14 11:33N 32°35' W 117°46'2 1.7
2017-Mar-14 10:33N 32°36' W 117°48'6 6.4
2017-Mar-14 09:33N 32°36' W 117°40'7 6.7
2017-Mar-14 08:33N 32°36' W 117°48'7 6.9
2017-Mar-14 07:33N 32°36' W 117°57'26 4.7
2017-Mar-14 02:07N 32°36' W 118°27'712.8
2017-Mar-14 01:33N 32°36' W 118°18'5213.0
2017-Mar-13 21:33N 32°36' W 117°17'8 8.3
2017-Mar-13 20:33N 32°43' W 117°11'  
Track history (hours):
 
Tides and Currents Weather Stations Pressure Air Temp Water Temp Dewpoint Dewpoint Depression Visibility Wind Speed Wind Dir Waves Ship Positions

Kaiser

Last reported at 2017-Mar-22 21:33 UTC. Time now 2017-Mar-28 02:19 UTC.
Position N 32°43' W 117°11'.

; draft 8.5 m.

Type: Military. MMSI: 303849000.

Date/timePositionNaut miles runAvg speedWind from/ knotsBaromVisibWave heightAir tempDewpointWater temp
2017-Mar-22 21:33N 32°43' W 117°11'7 7.0
2017-Mar-22 20:34N 32°36' W 117°14'1615.9
2017-Mar-22 19:33N 32°30' W 117°31'17 0.3
2017-Mar-20 16:12N 32°38' W 117°14'6 8.7
2017-Mar-20 15:33N 32°43' W 117°12'  
2017-Mar-17 21:19N 32°42' W 117°11'3 3.6
2017-Mar-17 20:33N 32°41' W 117°14'8 7.7
2017-Mar-17 19:33N 32°34' W 117°18'7 6.9
2017-Mar-17 18:34N 32°35' W 117°26'5 4.9
2017-Mar-17 17:34N 32°35' W 117°20'1 0.6
2017-Mar-17 16:33N 32°35' W 117°21'7 6.7
2017-Mar-17 15:34N 32°36' W 117°29'9 8.9
2017-Mar-17 14:33N 32°35' W 117°18'1 0.7
2017-Mar-17 13:33N 32°34' W 117°18'  
2017-Mar-14 22:16N 32°36' W 118°48'912.4
2017-Mar-14 21:33N 32°36' W 118°38'1212.3
2017-Mar-14 20:33N 32°36' W 118°23'1312.7
2017-Mar-14 19:33N 32°36' W 118°08'1110.5
2017-Mar-14 18:33N 32°36' W 117°55'2 1.7
2017-Mar-14 17:33N 32°36' W 117°57'7 7.1
2017-Mar-14 16:33N 32°36' W 118°06'7 6.7
2017-Mar-14 15:33N 32°36' W 118°14'7 6.7
2017-Mar-14 14:33N 32°36' W 118°06'7 7.1
2017-Mar-14 13:33N 32°36' W 117°57'7 7.3
2017-Mar-14 12:33N 32°36' W 117°49'2 2.1
2017-Mar-14 11:33N 32°35' W 117°46'2 1.7
2017-Mar-14 10:33N 32°36' W 117°48'6 6.4
2017-Mar-14 09:33N 32°36' W 117°40'7 6.7
2017-Mar-14 08:33N 32°36' W 117°48'7 6.9
2017-Mar-14 07:33N 32°36' W 117°57'26 4.7
2017-Mar-14 02:07N 32°36' W 118°27'712.8
2017-Mar-14 01:33N 32°36' W 118°18'5213.0
2017-Mar-13 21:33N 32°36' W 117°17'8 8.3
2017-Mar-13 20:33N 32°43' W 117°11'  

Dump ship's entire track history